Time;durP1;ratioP1;P1;durP2;ratioP2;P2;SDS_P1;SDS_P2;PMS_P1;PMS_P2;Temp;Humidity;BMP_temperature;BMP_pressure;BME280_temperature;BME280_humidity;BME280_pressure;Samples;Min_cycle;Max_cycle;Signal;HPM_P1;HPM_P2
2022/08/07 00:01:45;;;;;;;1.77;1.27;;;17.60;60.30;;;;;;5112938;28;20044;-72
2022/08/07 00:04:11;;;;;;;1.98;1.40;;;17.50;61.40;;;;;;5113088;28;20032;-72
2022/08/07 00:06:38;;;;;;;1.95;1.50;;;17.40;61.40;;;;;;5112120;28;20024;-72
2022/08/07 00:09:04;;;;;;;2.20;1.20;;;17.30;61.60;;;;;;5112022;28;20028;-72
2022/08/07 00:11:29;;;;;;;1.48;1.17;;;17.20;61.50;;;;;;5113002;28;20486;-72
2022/08/07 00:13:55;;;;;;;1.90;1.13;;;17.10;61.50;;;;;;5112987;28;20028;-73
2022/08/07 00:16:21;;;;;;;2.47;1.35;;;17.10;61.60;;;;;;5112978;28;20047;-72
2022/08/07 00:18:47;;;;;;;2.13;1.13;;;17.10;61.50;;;;;;5112848;28;20040;-72
2022/08/07 00:21:13;;;;;;;1.38;0.95;;;17.10;61.60;;;;;;5112947;28;20444;-72
2022/08/07 00:23:39;;;;;;;1.42;1.10;;;17.10;61.30;;;;;;5112873;28;20024;-72
2022/08/07 00:26:08;;;;;;;1.35;1.10;;;17.20;61.30;;;;;;5113164;28;20027;-72
2022/08/07 00:28:34;;;;;;;1.67;1.13;;;17.30;61.30;;;;;;5116418;28;20396;-72
2022/08/07 00:31:06;;;;;;;1.48;1.20;;;17.30;61.10;;;;;;5116440;28;20080;-72
2022/08/07 00:33:33;;;;;;;3.97;1.40;;;17.10;61.60;;;;;;5115552;28;20024;-73
2022/08/07 00:35:59;;;;;;;1.77;1.30;;;17.10;61.80;;;;;;5116470;28;20028;-72
2022/08/07 00:38:24;;;;;;;1.58;1.20;;;17.10;61.90;;;;;;5116302;28;20017;-72
2022/08/07 00:40:50;;;;;;;1.92;1.25;;;17.10;61.70;;;;;;5116226;28;20024;-72
2022/08/07 00:43:16;;;;;;;1.50;1.38;;;16.90;62.10;;;;;;5116202;28;20051;-72
2022/08/07 00:45:42;;;;;;;1.92;1.30;;;16.90;62.50;;;;;;5116112;28;20028;-72
2022/08/07 00:48:09;;;;;;;2.10;1.30;;;16.80;62.40;;;;;;5116091;28;20084;-72
2022/08/07 00:50:35;;;;;;;3.90;1.50;;;16.80;62.40;;;;;;5116067;28;20032;-72
2022/08/07 00:53:01;;;;;;;2.88;1.35;;;16.80;62.10;;;;;;5116002;28;20027;-72
2022/08/07 00:55:28;;;;;;;1.98;1.25;;;16.70;62.20;;;;;;5116007;28;20028;-72
2022/08/07 00:57:54;;;;;;;3.53;1.20;;;16.60;62.70;;;;;;5115947;28;20028;-72
2022/08/07 01:00:20;;;;;;;2.75;1.23;;;16.70;62.70;;;;;;5115785;28;20043;-72
2022/08/07 01:02:46;;;;;;;1.70;1.13;;;16.60;62.70;;;;;;5115608;28;20047;-74
2022/08/07 01:05:12;;;;;;;1.85;1.30;;;16.60;63.00;;;;;;5115771;28;20028;-72
2022/08/07 01:07:39;;;;;;;2.95;1.50;;;16.60;62.90;;;;;;5115875;28;20024;-72
2022/08/07 01:10:07;;;;;;;4.13;1.70;;;16.60;62.70;;;;;;5115731;28;20074;-72
2022/08/07 01:12:33;;;;;;;1.73;1.30;;;16.50;62.70;;;;;;5115643;28;20057;-72
2022/08/07 01:15:00;;;;;;;2.10;1.58;;;16.50;62.70;;;;;;5115585;28;20021;-72
2022/08/07 01:17:26;;;;;;;2.38;1.30;;;16.50;62.80;;;;;;5115644;28;20530;-72
2022/08/07 01:19:55;;;;;;;2.40;1.30;;;16.50;63.00;;;;;;5115429;28;20035;-72
2022/08/07 01:22:21;;;;;;;2.28;1.50;;;16.40;62.90;;;;;;5115457;28;20043;-72
2022/08/07 01:24:48;;;;;;;1.92;1.50;;;16.30;63.00;;;;;;5115428;28;20069;-72
2022/08/07 01:27:14;;;;;;;3.03;1.42;;;16.30;63.10;;;;;;5115379;28;20020;-72
2022/08/07 01:29:41;;;;;;;2.20;1.58;;;16.30;63.30;;;;;;5115220;28;20092;-74
2022/08/07 01:32:07;;;;;;;2.40;1.52;;;16.20;63.50;;;;;;5115256;28;20031;-72
2022/08/07 01:34:33;;;;;;;1.48;1.20;;;16.20;63.30;;;;;;5115210;28;20398;-72
2022/08/07 01:36:59;;;;;;;2.38;1.60;;;16.20;63.00;;;;;;5114898;28;20028;-72
2022/08/07 01:39:26;;;;;;;2.35;1.40;;;16.20;63.00;;;;;;5115049;28;20032;-72
2022/08/07 01:41:54;;;;;;;3.00;1.50;;;16.20;63.70;;;;;;5115099;28;20020;-73
2022/08/07 01:44:20;;;;;;;5.57;1.75;;;16.10;63.50;;;;;;5115029;28;20020;-72
2022/08/07 01:46:45;;;;;;;3.17;1.70;;;16.00;63.80;;;;;;5114992;28;20101;-75
2022/08/07 01:49:12;;;;;;;2.00;1.50;;;16.00;64.00;;;;;;5114984;28;20020;-72
2022/08/07 01:51:40;;;;;;;2.63;1.85;;;16.00;63.90;;;;;;5114852;28;20109;-72
2022/08/07 01:54:09;;;;;;;2.53;1.52;;;16.00;63.90;;;;;;5114810;28;20020;-72
2022/08/07 01:56:35;;;;;;;2.90;1.63;;;16.00;63.80;;;;;;5114803;28;20044;-72
2022/08/07 01:59:07;;;;;;;3.45;1.48;;;16.10;63.70;;;;;;5114650;28;20035;-72
2022/08/07 02:01:44;;;;;;;2.45;1.50;;;16.10;63.90;;;;;;5114549;28;20060;-72
2022/08/07 02:04:23;;;;;;;2.10;1.58;;;16.00;63.80;;;;;;5114684;28;20031;-72
2022/08/07 02:06:49;;;;;;;3.00;1.90;;;15.90;63.90;;;;;;5114628;28;20020;-72
2022/08/07 02:09:17;;;;;;;2.03;1.60;;;15.90;63.80;;;;;;5114560;28;20032;-72
2022/08/07 02:11:47;;;;;;;4.35;1.80;;;15.80;63.70;;;;;;5114501;28;20016;-72
2022/08/07 02:14:15;;;;;;;2.70;1.52;;;15.80;63.90;;;;;;5114707;28;20049;-73
2022/08/07 02:16:42;;;;;;;3.05;1.60;;;15.70;64.00;;;;;;5114548;28;20050;-72
2022/08/07 02:19:12;;;;;;;3.05;1.75;;;15.80;63.90;;;;;;5114270;28;20450;-72
2022/08/07 02:21:39;;;;;;;2.78;1.60;;;15.80;64.00;;;;;;5114406;28;20020;-72
2022/08/07 02:24:06;;;;;;;2.50;1.52;;;15.70;63.70;;;;;;5114273;28;20024;-72
2022/08/07 02:26:36;;;;;;;2.90;1.70;;;15.70;64.10;;;;;;5114237;28;20024;-72
2022/08/07 02:29:06;;;;;;;4.03;2.00;;;15.70;64.40;;;;;;5114125;28;20039;-72
2022/08/07 02:31:32;;;;;;;2.97;1.90;;;15.70;64.80;;;;;;5114057;28;20024;-72
2022/08/07 02:34:00;;;;;;;2.58;1.65;;;15.80;65.30;;;;;;5114071;28;20067;-72
2022/08/07 02:36:27;;;;;;;3.05;1.95;;;15.50;65.10;;;;;;5114091;28;20035;-72
2022/08/07 02:38:55;;;;;;;3.10;1.90;;;15.40;65.50;;;;;;5114101;28;20024;-72
2022/08/07 02:41:22;;;;;;;4.07;1.90;;;15.40;66.20;;;;;;5113015;28;20041;-72
2022/08/07 02:43:49;;;;;;;3.55;2.13;;;15.60;65.90;;;;;;5113929;28;20030;-72
2022/08/07 02:46:18;;;;;;;2.95;1.77;;;15.60;65.30;;;;;;5113912;28;20024;-73
2022/08/07 02:48:45;;;;;;;2.45;1.75;;;15.60;65.30;;;;;;5113391;28;20022;-72
2022/08/07 02:51:15;;;;;;;2.50;1.80;;;15.50;65.30;;;;;;5113701;28;20028;-72
2022/08/07 02:53:44;;;;;;;3.88;1.98;;;15.50;65.50;;;;;;5113865;28;20046;-72
2022/08/07 02:56:14;;;;;;;3.50;1.85;;;15.50;65.40;;;;;;5113771;28;20042;-72
2022/08/07 02:58:42;;;;;;;4.40;2.13;;;15.40;65.80;;;;;;5113623;28;20012;-72
2022/08/07 03:01:10;;;;;;;2.95;1.90;;;15.20;66.00;;;;;;5113513;28;20094;-72
2022/08/07 03:03:36;;;;;;;2.90;2.00;;;15.20;66.10;;;;;;5113659;28;20024;-72
2022/08/07 03:06:03;;;;;;;3.20;2.05;;;15.30;65.40;;;;;;5113631;28;20036;-72
2022/08/07 03:08:29;;;;;;;5.22;2.00;;;15.50;65.20;;;;;;5113607;28;20020;-72
2022/08/07 03:10:55;;;;;;;3.13;1.90;;;15.40;64.80;;;;;;5113601;28;20095;-72
2022/08/07 03:13:21;;;;;;;3.42;2.00;;;15.20;65.00;;;;;;5113607;28;20028;-72
2022/08/07 03:15:48;;;;;;;3.42;2.00;;;15.20;65.50;;;;;;5113559;28;20382;-72
2022/08/07 03:18:15;;;;;;;3.03;1.50;;;15.10;65.50;;;;;;5113557;28;20046;-72
2022/08/07 03:20:41;;;;;;;3.58;1.75;;;15.20;65.20;;;;;;5113479;28;20024;-72
2022/08/07 03:23:08;;;;;;;3.83;2.00;;;15.20;65.30;;;;;;5113453;28;20028;-72
2022/08/07 03:25:36;;;;;;;4.43;1.90;;;15.20;65.20;;;;;;5113462;28;20083;-73
2022/08/07 03:28:03;;;;;;;3.00;2.30;;;15.20;65.30;;;;;;5113498;28;20040;-72
2022/08/07 03:30:31;;;;;;;3.10;2.08;;;15.30;65.60;;;;;;5113383;28;20030;-73
2022/08/07 03:32:59;;;;;;;8.52;2.47;;;15.20;65.90;;;;;;5113377;28;20031;-73
2022/08/07 03:35:27;;;;;;;3.05;2.17;;;15.10;65.80;;;;;;5113357;28;20134;-72
2022/08/07 03:37:58;;;;;;;4.20;2.30;;;15.10;66.40;;;;;;5113342;28;20028;-73
2022/08/07 03:40:25;;;;;;;3.63;2.58;;;15.00;66.40;;;;;;5113319;28;20035;-72
2022/08/07 03:42:51;;;;;;;3.53;2.38;;;14.90;66.90;;;;;;5113276;28;20077;-72
2022/08/07 03:45:19;;;;;;;5.82;2.45;;;15.00;67.00;;;;;;5113272;28;20016;-72
2022/08/07 03:47:45;;;;;;;4.43;2.50;;;15.00;66.60;;;;;;5113279;28;20024;-72
2022/08/07 03:50:11;;;;;;;4.63;2.47;;;15.00;66.60;;;;;;5113239;28;20028;-72
2022/08/07 03:52:37;;;;;;;3.67;2.20;;;14.90;66.30;;;;;;5113318;28;20058;-72
2022/08/07 03:55:03;;;;;;;4.07;2.35;;;14.80;66.50;;;;;;5113179;28;20088;-72
2022/08/07 03:57:31;;;;;;;2.67;1.80;;;14.90;66.70;;;;;;5113136;28;20024;-72
2022/08/07 03:59:57;;;;;;;4.60;2.10;;;14.90;66.60;;;;;;5113138;28;20035;-72
2022/08/07 04:02:23;;;;;;;3.08;2.28;;;14.90;66.30;;;;;;5116779;28;20047;-72
2022/08/07 04:04:50;;;;;;;4.15;1.90;;;14.80;66.50;;;;;;5116956;28;20092;-72
2022/08/07 04:07:16;;;;;;;3.05;2.13;;;14.90;66.70;;;;;;5116943;28;20024;-73
2022/08/07 04:09:44;;;;;;;2.53;1.80;;;14.80;66.30;;;;;;5117038;28;20028;-72
2022/08/07 04:12:11;;;;;;;3.17;2.08;;;14.80;66.20;;;;;;5116822;28;20054;-72
2022/08/07 04:14:39;;;;;;;3.63;2.17;;;14.70;66.60;;;;;;5116792;28;20028;-72
2022/08/07 04:17:04;;;;;;;3.58;2.20;;;14.60;66.80;;;;;;5116762;28;20083;-72
2022/08/07 04:19:30;;;;;;;5.25;2.25;;;14.60;67.00;;;;;;5116599;28;20032;-72
2022/08/07 04:21:56;;;;;;;3.15;2.22;;;14.60;67.10;;;;;;5116648;28;20032;-72
2022/08/07 04:24:24;;;;;;;3.92;2.45;;;14.60;67.00;;;;;;5116605;28;20025;-72
2022/08/07 04:26:49;;;;;;;3.65;2.53;;;14.70;66.70;;;;;;5116571;28;20051;-72
2022/08/07 04:29:15;;;;;;;4.25;2.35;;;14.80;66.70;;;;;;5116478;28;20092;-72
2022/08/07 04:31:41;;;;;;;5.60;2.30;;;14.70;66.50;;;;;;5116442;28;20020;-72
2022/08/07 04:34:07;;;;;;;4.25;2.67;;;14.60;66.40;;;;;;5116539;28;20506;-72
2022/08/07 04:36:34;;;;;;;3.40;2.03;;;14.60;66.80;;;;;;5116353;28;20102;-73
2022/08/07 04:39:04;;;;;;;3.50;2.17;;;14.60;67.10;;;;;;5116217;28;20079;-72
2022/08/07 04:41:29;;;;;;;4.70;2.60;;;14.60;66.90;;;;;;5116362;28;20026;-72
2022/08/07 04:43:56;;;;;;;4.32;2.55;;;14.70;66.80;;;;;;5116223;28;20028;-72
2022/08/07 04:46:45;;;;;;;4.65;2.72;;;14.70;66.90;;;;;;5116165;28;20016;-73
2022/08/07 04:49:19;;;;;;;5.45;2.67;;;14.60;67.20;;;;;;5116299;28;20020;-72
2022/08/07 04:51:50;;;;;;;5.25;3.35;;;14.60;67.60;;;;;;5116267;28;20032;-72
2022/08/07 04:54:33;;;;;;;5.82;3.08;;;14.60;67.90;;;;;;5116068;28;20028;-72
2022/08/07 04:57:17;;;;;;;4.57;3.00;;;14.70;68.20;;;;;;5115996;28;20047;-73
2022/08/07 04:59:57;;;;;;;9.25;3.20;;;14.70;67.90;;;;;;5115920;28;20032;-73
2022/08/07 05:02:28;;;;;;;4.82;3.10;;;14.70;68.50;;;;;;5115721;28;20123;-73
2022/08/07 05:05:22;;;;;;;6.63;3.05;;;14.80;68.20;;;;;;5116048;28;20051;-72
2022/08/07 05:08:11;;;;;;;5.03;2.85;;;14.70;68.40;;;;;;5115930;28;20077;-73
2022/08/07 05:10:42;;;;;;;4.50;2.83;;;14.70;68.40;;;;;;5115741;28;20471;-72
2022/08/07 05:13:08;;;;;;;5.78;3.40;;;14.70;68.90;;;;;;5115057;28;20046;-73
2022/08/07 05:15:38;;;;;;;7.25;3.70;;;14.70;69.00;;;;;;5115613;28;20024;-73
2022/08/07 05:18:29;;;;;;;6.20;3.65;;;14.90;68.80;;;;;;5115650;28;20016;-72
2022/08/07 05:21:01;;;;;;;5.97;3.45;;;15.00;69.00;;;;;;5115174;28;20040;-72
2022/08/07 05:23:34;;;;;;;6.78;2.95;;;15.10;68.90;;;;;;5115522;28;20040;-73
2022/08/07 05:26:01;;;;;;;7.63;3.50;;;15.20;68.90;;;;;;5115493;28;20016;-72
2022/08/07 05:28:29;;;;;;;6.18;3.38;;;15.20;68.80;;;;;;5115309;28;20073;-72
2022/08/07 05:30:56;;;;;;;8.07;4.60;;;15.20;69.10;;;;;;5115281;28;20023;-72
2022/08/07 05:33:22;;;;;;;7.30;3.97;;;15.30;69.60;;;;;;5115241;28;20028;-72
2022/08/07 05:35:50;;;;;;;11.23;4.53;;;15.30;70.20;;;;;;5115184;28;20026;-72
2022/08/07 05:38:16;;;;;;;12.20;4.80;;;15.40;70.40;;;;;;5115137;28;20026;-72
2022/08/07 05:40:42;;;;;;;9.02;5.13;;;15.50;70.20;;;;;;5115054;28;20028;-72
2022/08/07 05:43:08;;;;;;;8.50;4.82;;;15.70;70.00;;;;;;5115060;28;20031;-72
2022/08/07 05:45:34;;;;;;;7.45;4.75;;;15.70;69.70;;;;;;5115194;28;20088;-72
2022/08/07 05:48:02;;;;;;;9.13;5.20;;;15.80;69.70;;;;;;5114984;28;20081;-72
2022/08/07 05:50:30;;;;;;;9.98;5.40;;;15.90;69.50;;;;;;5114945;28;20028;-72
2022/08/07 05:52:56;;;;;;;9.60;5.10;;;16.00;69.30;;;;;;5114869;28;20039;-73
2022/08/07 05:55:23;;;;;;;10.70;5.75;;;16.00;69.40;;;;;;5114811;28;20024;-72
2022/08/07 05:57:49;;;;;;;10.23;5.57;;;16.00;69.60;;;;;;5114782;28;20032;-73
2022/08/07 06:00:16;;;;;;;12.23;5.90;;;16.10;69.60;;;;;;5114665;28;20024;-72
2022/08/07 06:02:47;;;;;;;12.20;6.45;;;16.20;69.50;;;;;;5114519;28;20071;-73
2022/08/07 06:05:13;;;;;;;10.00;5.82;;;16.20;69.40;;;;;;5114661;28;20027;-72
2022/08/07 06:07:39;;;;;;;10.50;5.18;;;16.30;69.30;;;;;;5114600;28;20039;-72
2022/08/07 06:10:07;;;;;;;9.02;5.97;;;16.30;69.30;;;;;;5114654;28;20038;-72
2022/08/07 06:12:33;;;;;;;9.50;5.65;;;16.30;69.40;;;;;;5114484;28;20044;-72
2022/08/07 06:14:59;;;;;;;11.02;6.07;;;16.40;69.30;;;;;;5114390;28;20387;-72
2022/08/07 06:17:26;;;;;;;9.75;6.45;;;16.40;69.20;;;;;;5114430;28;20035;-72
2022/08/07 06:19:52;;;;;;;12.73;6.47;;;16.40;69.30;;;;;;5114217;28;20024;-72
2022/08/07 06:22:18;;;;;;;13.02;6.68;;;16.50;69.20;;;;;;5114333;28;20016;-72
2022/08/07 06:24:45;;;;;;;10.57;5.88;;;16.50;69.10;;;;;;5113355;28;20016;-72
2022/08/07 06:27:22;;;;;;;11.52;6.75;;;16.60;69.00;;;;;;5114228;28;20028;-71
2022/08/07 06:29:47;;;;;;;11.68;5.97;;;16.70;69.00;;;;;;5114170;28;20056;-72
2022/08/07 06:32:13;;;;;;;11.32;6.35;;;16.70;68.90;;;;;;5114141;28;20028;-72
2022/08/07 06:34:39;;;;;;;13.30;7.07;;;16.70;68.90;;;;;;5114252;28;20028;-73
2022/08/07 06:37:04;;;;;;;12.52;6.72;;;16.80;69.10;;;;;;5114053;28;20039;-72
2022/08/07 06:39:31;;;;;;;14.27;7.63;;;16.80;69.10;;;;;;5114107;28;20020;-72
2022/08/07 06:42:13;;;;;;;16.58;7.60;;;16.90;69.10;;;;;;5114004;28;20020;-72
2022/08/07 06:44:40;;;;;;;11.63;7.22;;;16.90;69.20;;;;;;5114133;28;20087;-72
2022/08/07 06:47:06;;;;;;;13.05;6.70;;;17.00;69.30;;;;;;5114045;28;20098;-72
2022/08/07 06:49:32;;;;;;;10.98;6.03;;;17.00;69.50;;;;;;5113865;28;20028;-71
2022/08/07 06:52:00;;;;;;;11.82;6.35;;;17.00;69.50;;;;;;5113817;28;20028;-71
2022/08/07 06:54:27;;;;;;;12.48;6.20;;;17.10;69.70;;;;;;5113824;28;20088;-72
2022/08/07 06:56:57;;;;;;;10.73;6.10;;;17.10;69.40;;;;;;5113770;28;20024;-72
2022/08/07 06:59:26;;;;;;;12.23;6.18;;;17.20;69.20;;;;;;5113665;28;20031;-72
2022/08/07 07:01:53;;;;;;;12.30;6.03;;;17.30;69.10;;;;;;5112604;28;20048;-72
2022/08/07 07:04:19;;;;;;;14.13;5.93;;;17.30;68.90;;;;;;5113707;28;20020;-72
2022/08/07 07:06:44;;;;;;;11.18;5.80;;;17.40;68.70;;;;;;5113659;28;20016;-71
2022/08/07 07:09:28;;;;;;;10.48;5.85;;;17.40;68.50;;;;;;5113592;28;20075;-72
2022/08/07 07:12:00;;;;;;;11.52;6.57;;;17.50;68.30;;;;;;5113635;28;20096;-72
2022/08/07 07:14:29;;;;;;;14.60;6.10;;;17.50;68.30;;;;;;5113593;28;20050;-72
2022/08/07 07:16:58;;;;;;;10.73;6.22;;;17.60;68.40;;;;;;5113641;28;20058;-72
2022/08/07 07:19:32;;;;;;;10.55;5.82;;;17.60;68.30;;;;;;5113441;28;20030;-72
2022/08/07 07:21:59;;;;;;;11.73;5.65;;;17.60;68.30;;;;;;5113677;28;20021;-72
2022/08/07 07:24:25;;;;;;;9.68;5.15;;;17.70;68.20;;;;;;5113455;28;20058;-71
2022/08/07 07:26:54;;;;;;;12.05;6.20;;;17.80;68.10;;;;;;5113411;28;20025;-71
2022/08/07 07:29:24;;;;;;;10.90;5.80;;;17.90;67.90;;;;;;5113312;28;20028;-71
2022/08/07 07:31:54;;;;;;;10.55;5.95;;;17.90;67.70;;;;;;5113535;28;20040;-72
2022/08/07 07:34:27;;;;;;;10.18;6.07;;;18.00;67.40;;;;;;5113370;28;20031;-72
2022/08/07 07:36:53;;;;;;;11.30;6.35;;;18.10;67.40;;;;;;5116796;28;20379;-72
2022/08/07 07:39:21;;;;;;;12.68;7.05;;;18.10;67.40;;;;;;5117522;28;20039;-72
2022/08/07 07:41:49;;;;;;;13.57;7.50;;;18.20;67.10;;;;;;5117459;28;20479;-73
2022/08/07 07:44:17;;;;;;;12.90;6.90;;;18.30;67.00;;;;;;5117499;28;20080;-72
2022/08/07 07:46:44;;;;;;;12.35;7.07;;;18.30;66.90;;;;;;5117315;28;20036;-72
2022/08/07 07:49:13;;;;;;;12.15;7.05;;;18.40;66.80;;;;;;5117263;28;20031;-72
2022/08/07 07:51:41;;;;;;;12.82;7.50;;;18.50;66.50;;;;;;5117250;28;20079;-72
2022/08/07 07:54:08;;;;;;;13.32;7.35;;;18.60;65.90;;;;;;5117182;28;20111;-72
2022/08/07 07:56:34;;;;;;;12.57;7.78;;;18.60;65.70;;;;;;5117154;28;20027;-72
2022/08/07 07:59:03;;;;;;;13.18;7.55;;;18.70;65.70;;;;;;5117012;28;20028;-72
2022/08/07 08:01:33;;;;;;;13.13;7.68;;;18.70;65.50;;;;;;5116866;28;20040;-72
2022/08/07 08:04:02;;;;;;;12.35;7.18;;;18.80;65.40;;;;;;5117041;28;20028;-72
2022/08/07 08:06:30;;;;;;;10.18;6.25;;;18.90;64.90;;;;;;5117003;28;20023;-72
2022/08/07 08:08:57;;;;;;;9.32;4.80;;;19.00;64.60;;;;;;5116925;28;20087;-72
2022/08/07 08:11:24;;;;;;;8.05;3.72;;;19.10;64.00;;;;;;5116881;28;20075;-72
2022/08/07 08:13:49;;;;;;;7.60;3.58;;;19.20;63.10;;;;;;5116957;28;20062;-72
2022/08/07 08:16:19;;;;;;;6.00;3.80;;;19.20;62.40;;;;;;5116748;28;20020;-72
2022/08/07 08:18:47;;;;;;;8.20;4.93;;;19.30;61.90;;;;;;5116767;28;20027;-72
2022/08/07 08:27:04;;;;;;;6.28;3.65;;;19.60;60.20;;;;;;5116688;28;20039;-72
2022/08/07 08:29:39;;;;;;;8.40;4.35;;;19.60;59.60;;;;;;5116614;28;20027;-72
2022/08/07 08:32:06;;;;;;;6.15;4.35;;;19.70;60.00;;;;;;5116511;28;20071;-72
2022/08/07 08:34:33;;;;;;;9.02;4.93;;;19.80;60.30;;;;;;5116420;28;20025;-72
2022/08/07 08:37:02;;;;;;;7.18;4.22;;;19.90;59.10;;;;;;5116398;28;20042;-72
2022/08/07 08:39:28;;;;;;;6.60;3.83;;;20.00;59.20;;;;;;5116194;28;20046;-72
2022/08/07 08:42:03;;;;;;;5.25;3.50;;;20.00;58.60;;;;;;5116267;28;20024;-72
2022/08/07 08:44:47;;;;;;;6.35;3.80;;;20.10;58.00;;;;;;5116192;28;20550;-72
2022/08/07 08:47:26;;;;;;;5.10;3.25;;;20.20;57.90;;;;;;5115185;28;20025;-72
2022/08/07 08:50:07;;;;;;;4.18;2.70;;;20.30;57.40;;;;;;5116296;28;20032;-73
2022/08/07 08:52:38;;;;;;;4.22;2.90;;;20.30;56.40;;;;;;5116257;28;20080;-72
2022/08/07 08:55:25;;;;;;;5.50;3.08;;;20.40;57.00;;;;;;5116129;28;20031;-72
2022/08/07 08:57:59;;;;;;;5.22;2.78;;;20.40;56.50;;;;;;5116018;28;20024;-72
2022/08/07 09:00:29;;;;;;;6.28;2.95;;;20.50;56.60;;;;;;5116021;28;20076;-72
2022/08/07 09:03:45;;;;;;;3.95;2.85;;;20.60;55.30;;;;;;5115761;28;20036;-72
2022/08/07 09:06:39;;;;;;;6.50;2.83;;;20.70;55.00;;;;;;5093700;28;20037;-72
2022/08/07 09:09:44;;;;;;;7.65;2.60;;;20.70;55.20;;;;;;5083428;28;20062;-72
2022/08/07 09:12:52;;;;;;;6.20;2.45;;;20.90;54.40;;;;;;5115747;28;20032;-72
2022/08/07 09:15:50;;;;;;;4.90;2.20;;;20.90;52.50;;;;;;5115631;28;20023;-71
2022/08/07 09:18:35;;;;;;;3.83;2.00;;;20.90;51.80;;;;;;5115700;28;20028;-72
2022/08/07 09:21:22;;;;;;;5.95;2.40;;;21.00;52.60;;;;;;5115603;28;20047;-72
2022/08/07 09:24:16;;;;;;;3.83;2.00;;;21.10;52.60;;;;;;5115613;28;20024;-71
2022/08/07 09:27:11;;;;;;;4.70;1.80;;;21.20;53.10;;;;;;5115407;28;20050;-72
2022/08/07 09:29:48;;;;;;;4.03;2.17;;;21.30;53.80;;;;;;5115387;28;20024;-72
2022/08/07 09:32:33;;;;;;;5.03;2.22;;;21.40;52.40;;;;;;5115308;28;20035;-72
2022/08/07 09:35:04;;;;;;;4.47;2.78;;;21.50;52.90;;;;;;5115423;28;20036;-71
2022/08/07 09:37:39;;;;;;;4.30;2.20;;;21.60;50.50;;;;;;5115321;28;20028;-72
2022/08/07 09:40:18;;;;;;;4.35;2.72;;;21.50;50.30;;;;;;5115119;28;20020;-71
2022/08/07 09:43:21;;;;;;;5.50;2.92;;;21.50;50.80;;;;;;5115320;28;20012;-72
2022/08/07 09:46:04;;;;;;;7.53;2.53;;;21.60;49.80;;;;;;5115121;28;20028;-72
2022/08/07 09:49:00;;;;;;;6.72;2.25;;;21.70;50.00;;;;;;5115138;28;20056;-72
2022/08/07 09:51:35;;;;;;;4.03;2.35;;;21.80;50.80;;;;;;5115137;28;20049;-72
2022/08/07 09:54:04;;;;;;;4.40;2.33;;;21.90;50.50;;;;;;5115055;28;20077;-71
2022/08/07 09:56:47;;;;;;;6.05;2.15;;;22.00;50.30;;;;;;5114962;28;20084;-71
2022/08/07 09:59:25;;;;;;;5.10;2.80;;;22.10;49.80;;;;;;5114681;28;20032;-71
2022/08/07 10:02:13;;;;;;;4.25;2.22;;;22.30;48.70;;;;;;5114525;28;20062;-71
2022/08/07 10:04:52;;;;;;;4.53;2.35;;;22.20;45.90;;;;;;5114693;28;20040;-71
2022/08/07 10:08:08;;;;;;;3.13;1.83;;;22.20;46.90;;;;;;5114682;28;20027;-71
2022/08/07 10:10:43;;;;;;;3.17;2.05;;;22.30;49.20;;;;;;5092563;28;20025;-71
2022/08/07 10:13:23;;;;;;;3.63;2.00;;;22.50;49.30;;;;;;5092445;28;20108;-71
2022/08/07 10:16:14;;;;;;;2.70;1.88;;;22.60;49.60;;;;;;5108150;28;20043;-71
2022/08/07 10:18:51;;;;;;;3.30;2.00;;;22.80;49.20;;;;;;5114488;28;20024;-71
2022/08/07 10:21:28;;;;;;;3.55;2.50;;;22.90;48.30;;;;;;5114545;28;20028;-71
2022/08/07 10:24:20;;;;;;;3.95;2.30;;;23.00;46.40;;;;;;5114374;28;20016;-72
2022/08/07 10:27:14;;;;;;;3.40;2.05;;;23.00;46.10;;;;;;5114340;28;20020;-71
2022/08/07 10:29:46;;;;;;;2.78;1.73;;;23.10;46.50;;;;;;5114197;28;20020;-71
2022/08/07 10:32:29;;;;;;;2.77;1.93;;;23.20;46.30;;;;;;5114230;28;20028;-71
2022/08/07 10:35:04;;;;;;;4.70;2.45;;;23.20;44.10;;;;;;5114279;28;20028;-71
2022/08/07 10:37:55;;;;;;;5.45;2.67;;;23.00;44.40;;;;;;5114090;28;20031;-71
2022/08/07 10:40:28;;;;;;;3.58;2.60;;;23.00;44.50;;;;;;5114147;28;20023;-71
2022/08/07 10:43:05;;;;;;;4.28;2.20;;;23.00;45.00;;;;;;5114098;28;20020;-71
2022/08/07 10:45:54;;;;;;;3.05;2.13;;;23.10;46.10;;;;;;5114030;28;20024;-71
2022/08/07 10:48:45;;;;;;;4.20;2.15;;;23.20;46.50;;;;;;5113884;28;20050;-71
2022/08/07 10:51:19;;;;;;;3.30;2.10;;;23.40;46.30;;;;;;5113903;28;20016;-71
2022/08/07 10:53:48;;;;;;;4.15;2.00;;;23.60;46.30;;;;;;5113928;28;20079;-71
2022/08/07 10:56:39;;;;;;;3.45;2.17;;;23.70;44.80;;;;;;5113779;28;20028;-71
2022/08/07 10:59:34;;;;;;;5.10;2.53;;;23.70;42.50;;;;;;5113687;28;20024;-72
2022/08/07 11:02:27;;;;;;;3.03;2.33;;;23.70;43.40;;;;;;5108586;28;20044;-72
2022/08/07 11:05:15;;;;;;;2.92;2.00;;;23.80;42.60;;;;;;5113713;28;20016;-72
2022/08/07 11:07:49;;;;;;;3.10;2.20;;;23.80;42.20;;;;;;5113675;28;20021;-72
2022/08/07 11:10:47;;;;;;;4.80;2.35;;;23.80;43.20;;;;;;5113114;28;20034;-71
2022/08/07 11:13:37;;;;;;;3.35;2.33;;;23.90;42.50;;;;;;5113626;28;20067;-72
2022/08/07 11:16:24;;;;;;;3.95;2.70;;;23.80;41.60;;;;;;5113707;28;20028;-71
2022/08/07 11:19:05;;;;;;;5.57;2.60;;;23.90;42.40;;;;;;5113507;28;20055;-71
2022/08/07 11:21:45;;;;;;;4.45;2.22;;;23.70;40.90;;;;;;5113537;28;20107;-71
2022/08/07 11:24:36;;;;;;;4.85;2.30;;;23.60;41.10;;;;;;5113507;28;20019;-71
2022/08/07 11:27:25;;;;;;;2.80;1.88;;;23.60;40.90;;;;;;5113619;28;20107;-71
2022/08/07 11:30:05;;;;;;;3.80;2.45;;;23.70;40.90;;;;;;5113408;28;20046;-71
2022/08/07 11:32:37;;;;;;;2.60;2.00;;;23.90;42.20;;;;;;5113450;28;20024;-71
2022/08/07 11:35:09;;;;;;;3.92;2.03;;;24.10;42.10;;;;;;5113360;28;20024;-71
2022/08/07 11:38:08;;;;;;;2.22;1.75;;;24.10;41.40;;;;;;5113431;28;20048;-71
2022/08/07 11:40:52;;;;;;;3.15;1.83;;;24.30;41.10;;;;;;5113307;28;20023;-71
2022/08/07 11:43:28;;;;;;;6.35;2.03;;;24.40;41.20;;;;;;5113325;28;20032;-71
2022/08/07 11:46:29;;;;;;;2.95;1.80;;;24.40;40.50;;;;;;5113356;28;20103;-72
2022/08/07 11:49:20;;;;;;;3.35;1.77;;;24.50;38.80;;;;;;5094637;28;20122;-71
2022/08/07 11:52:04;;;;;;;3.75;1.60;;;24.50;41.50;;;;;;5112218;28;20012;-71
2022/08/07 11:54:53;;;;;;;2.80;1.50;;;24.60;40.40;;;;;;5113262;28;20027;-71
2022/08/07 11:58:11;;;;;;;2.70;1.85;;;24.80;37.70;;;;;;5109610;28;20040;-71
2022/08/07 12:00:47;;;;;;;4.75;2.00;;;24.90;38.30;;;;;;5103706;28;20040;-71
2022/08/07 12:03:45;;;;;;;4.25;1.70;;;24.90;38.60;;;;;;5113032;28;20048;-71
2022/08/07 12:06:48;;;;;;;2.85;1.83;;;25.00;36.90;;;;;;5113270;28;20024;-71
2022/08/07 12:09:32;;;;;;;2.97;1.60;;;24.80;37.20;;;;;;5113051;28;20024;-71
2022/08/07 12:12:03;;;;;;;2.60;1.73;;;24.80;38.00;;;;;;5113204;28;20036;-71
2022/08/07 12:14:37;;;;;;;2.28;1.67;;;24.90;37.90;;;;;;5113106;28;20035;-71
2022/08/07 12:17:10;;;;;;;4.28;1.83;;;24.80;37.80;;;;;;5113096;28;20058;-71
2022/08/07 12:19:38;;;;;;;2.53;1.80;;;24.90;37.40;;;;;;5112966;28;20083;-71
2022/08/07 12:22:21;;;;;;;2.58;1.90;;;24.90;38.60;;;;;;5114742;28;20024;-71
2022/08/07 12:28:03;;;;;;;3.42;1.80;;;25.30;39.00;;;;;;5116616;28;20088;-71
2022/08/07 12:30:33;;;;;;;2.80;1.65;;;25.50;38.80;;;;;;5116488;28;20024;-71
2022/08/07 12:33:18;;;;;;;4.35;1.42;;;25.50;37.40;;;;;;5116660;28;20020;-71
2022/08/07 12:35:47;;;;;;;3.28;1.50;;;25.60;37.40;;;;;;5116655;28;20028;-71
2022/08/07 12:38:14;;;;;;;4.25;1.60;;;25.70;37.40;;;;;;5116363;28;20016;-71
2022/08/07 12:40:42;;;;;;;1.85;1.48;;;25.80;37.10;;;;;;5116253;28;20027;-71
2022/08/07 12:43:11;;;;;;;2.70;1.60;;;25.90;36.80;;;;;;5115314;28;20039;-71
2022/08/07 12:45:51;;;;;;;2.80;1.60;;;26.00;36.60;;;;;;5116233;28;20020;-71
2022/08/07 12:48:39;;;;;;;2.67;1.40;;;26.10;36.10;;;;;;5116236;28;20020;-72
2022/08/07 12:51:35;;;;;;;1.65;1.30;;;26.20;35.30;;;;;;5116268;28;20028;-71
2022/08/07 12:54:21;;;;;;;2.58;1.60;;;26.30;34.90;;;;;;5116088;28;20023;-71
2022/08/07 12:56:50;;;;;;;2.00;1.63;;;26.40;35.40;;;;;;5116092;28;20020;-71
2022/08/07 12:59:24;;;;;;;3.15;1.52;;;26.40;33.70;;;;;;5115900;28;20376;-71
2022/08/07 13:02:11;;;;;;;2.35;1.38;;;26.40;33.80;;;;;;5115782;28;20044;-72
2022/08/07 13:04:47;;;;;;;2.60;1.48;;;26.50;33.10;;;;;;5115943;28;20020;-71
2022/08/07 13:07:40;;;;;;;2.85;1.60;;;26.40;34.80;;;;;;5116003;28;20019;-71
2022/08/07 13:10:52;;;;;;;3.25;1.77;;;26.40;35.10;;;;;;5115841;28;20038;-71
2022/08/07 13:13:54;;;;;;;2.75;2.00;;;26.60;35.20;;;;;;5099498;28;20033;-71
2022/08/07 13:16:53;;;;;;;2.65;1.90;;;26.70;34.70;;;;;;5115747;28;20020;-71
2022/08/07 13:19:51;;;;;;;2.58;1.42;;;26.40;33.60;;;;;;5115533;28;20115;-72
2022/08/07 13:22:34;;;;;;;8.10;2.13;;;26.30;34.80;;;;;;5115708;28;20031;-71
2022/08/07 13:25:09;;;;;;;2.00;1.50;;;26.20;34.10;;;;;;5115515;28;20019;-71
2022/08/07 13:27:59;;;;;;;2.55;1.30;;;26.30;35.10;;;;;;5115616;28;20016;-72